• Join FlightAware (Why Join?)
  • Login
  • US Flag 
07:22AM EDT


 

Airport Tracker/Info


-or-


 

Live Flight TrackerFlight Track Log ✈ N825AK ✈ 05-Jul-2013 ✈ 61C - KHYR

Flight Track Log - Related Links

Times and Time Zones

All times are in EDT time to prevent confusion due to time zone crossing. See the N825AK flight status page for this flight to view local times or setup timezone preferences in your user account.

Time Position Orientation Groundspeed Altitude Reporting Facility
EDT Latitude Longitude Course Direction KTS MPH feet Rate Location/Type
11:06AM 43.1414 -88.7808 329° Northwest 146 168 4,500  Level Chicago Center
11:07AM 43.1781 -88.8083 331° Northwest 148 170 4,500 -60 Level Chicago Center
11:09AM 43.2556 -88.8706 330° Northwest 148 170 4,400  Descending Minneapolis Center
11:10AM 43.1717 -88.9865 329° Northwest  Level Estimated
11:10AM 43.2794 -88.9019 316° Northwest 145 167 4,600  Level Chicago Center
11:11AM 43.2065 -89.0147 329° Northwest  Level Estimated
11:11AM 43.3125 -88.9333 325° Northwest 144 166 4,500  Level Chicago Center
11:12AM 43.3475 -88.9625 329° Northwest 145 167 4,500  Level Chicago Center
11:13AM 43.3875 -88.9978 327° Northwest 146 168 4,600  Climbing Chicago Center
11:14AM 43.4214 -89.0283 327° Northwest 145 167 4,500 -60 Descending Chicago Center
11:15AM 43.4558 -89.0581 328° Northwest 145 167 4,500 -60 Level Chicago Center
11:16AM 43.4903 -89.0900 326° Northwest 147 169 4,400  Descending Chicago Center
11:17AM 43.5242 -89.1192 328° Northwest 146 168 4,500  Climbing Chicago Center
11:18AM 43.5578 -89.1489 327° Northwest 144 166 4,500 -60 Level Chicago Center
11:19AM 43.5917 -89.1786 328° Northwest 143 165 4,400 -60 Descending Chicago Center
11:20AM 43.6303 -89.2131 327° Northwest 142 163 4,400  Level Chicago Center
11:21AM 43.6636 -89.2433 327° Northwest 143 165 4,500  Climbing Chicago Center
11:22AM 43.6975 -89.2728 328° Northwest 143 165 4,500  Level Chicago Center
11:23AM 43.7311 -89.3033 327° Northwest 144 166 4,500  Level Chicago Center
11:24AM 43.7644 -89.3336 327° Northwest 144 166 4,500  Level Chicago Center
11:25AM 43.7981 -89.3625 328° Northwest 143 165 4,500  Level Chicago Center
11:26AM 43.8422 -89.3992 329° Northwest 141 162 4,500  Level Minneapolis Center
11:27AM 43.8700 -89.4275 324° Northwest 142 163 4,500  Level Chicago Center
11:28AM 43.9031 -89.4575 327° Northwest 142 163 4,500  Level Chicago Center
11:29AM 43.9358 -89.4875 327° Northwest 141 162 4,500  Level Chicago Center
11:30AM 43.9683 -89.5167 327° Northwest 140 161 4,500  Level Chicago Center
11:31AM 44.0011 -89.5478 326° Northwest 141 162 4,500  Level Chicago Center
11:32AM 44.0339 -89.5756 329° Northwest 139 160 4,500  Level Chicago Center
11:33AM 44.0675 -89.6058 327° Northwest 141 162 4,500  Level Chicago Center
11:34AM 44.1139 -89.6467 328° Northwest 142 163 4,500  Level Minneapolis Center
11:36AM 44.1458 -89.6742 328° Northwest 140 161 4,500  Level Minneapolis Center
11:37AM 44.1800 -89.7044 328° Northwest 139 160 4,500  Level Minneapolis Center
11:38AM 44.2142 -89.7369 326° Northwest 142 163 4,500  Level Minneapolis Center
11:39AM 44.2492 -89.7683 327° Northwest 143 165 4,500  Level Minneapolis Center
11:40AM 44.2831 -89.8008 326° Northwest 143 165 4,500 -60 Level Minneapolis Center
11:41AM 44.3156 -89.8289 328° Northwest 142 163 4,400 -60 Descending Minneapolis Center
11:42AM 44.3503 -89.8608 327° Northwest 144 166 4,400  Level Minneapolis Center
11:43AM 44.3794 -89.8869 327° Northwest 142 163 4,500  Climbing Minneapolis Center
11:44AM 44.4178 -89.9231 326° Northwest 139 160 4,400  Descending Minneapolis Center
11:45AM 44.4522 -89.9539 327° Northwest 140 161 4,500  Climbing Minneapolis Center
11:46AM 44.4869 -89.9847 328° Northwest 142 163 4,400 -60 Descending Minneapolis Center
11:47AM 44.5206 -90.0164 326° Northwest 140 161 4,400  Level Minneapolis Center
11:48AM 44.5519 -90.0450 327° Northwest 140 161 4,500  Climbing Minneapolis Center
11:49AM 44.5869 -90.0775 327° Northwest 144 166 4,400  Descending Minneapolis Center
11:50AM 44.6214 -90.1103 326° Northwest 143 165 4,500  Climbing Minneapolis Center
11:51AM 44.6569 -90.1414 328° Northwest 144 166 4,500  Level Minneapolis Center
11:52AM 44.6919 -90.1756 325° Northwest 145 167 4,500 -60 Level Minneapolis Center
11:53AM 44.7189 -90.2000 327° Northwest 145 167 4,400  Descending Minneapolis Center
11:54AM 44.7589 -90.2369 327° Northwest 144 166 4,500  Climbing Minneapolis Center
11:55AM 44.7928 -90.2689 326° Northwest 141 162 4,500  Level Minneapolis Center
11:56AM 44.8289 -90.3025 327° Northwest 147 169 4,500 -60 Level Minneapolis Center
11:57AM 44.8647 -90.3361 326° Northwest 149 171 4,400 -60 Descending Minneapolis Center
11:58AM 44.9006 -90.3700 326° Northwest 149 171 4,400  Level Minneapolis Center
11:59AM 44.9361 -90.4025 327° Northwest 146 168 4,500  Climbing Minneapolis Center
12:00PM 44.9697 -90.4342 326° Northwest 149 171 4,400  Descending Minneapolis Center
12:01PM 45.0058 -90.4672 327° Northwest 149 171 4,500  Climbing Minneapolis Center
12:02PM 45.0419 -90.5014 326° Northwest 149 171 4,400 -60 Descending Minneapolis Center
12:03PM 45.0781 -90.5358 326° Northwest 151 174 4,400  Level Minneapolis Center
12:04PM 45.1136 -90.5669 328° Northwest 150 173 4,400 -60 Level Minneapolis Center
12:05PM 45.1472 -90.5997 325° Northwest 149 171 4,300 -60 Descending Minneapolis Center
12:06PM 45.1817 -90.6322 326° Northwest 148 170 4,300  Level Minneapolis Center
12:08PM 45.2156 -90.6653 326° Northwest 148 170 4,400  Climbing Minneapolis Center
12:09PM 45.2506 -90.6981 327° Northwest 149 171 4,400 -60 Level Minneapolis Center
12:10PM 45.2936 -90.7375 327° Northwest 151 174 4,300 -60 Descending Minneapolis Center
12:11PM 45.3283 -90.7708 326° Northwest 151 174 4,300  Level Minneapolis Center
12:12PM 45.3639 -90.8036 327° Northwest 151 174 4,300  Level Minneapolis Center
12:13PM 45.3992 -90.8375 326° Northwest 152 175 4,400  Climbing Minneapolis Center
12:14PM 45.4336 -90.8719 325° Northwest 152 175 4,300  Descending Minneapolis Center
12:15PM 45.4686 -90.9053 326° Northwest 152 175 4,400  Climbing Minneapolis Center
12:16PM 45.5067 -90.9403 327° Northwest 152 175 4,300 -120 Descending Minneapolis Center
12:18PM 45.5658 -90.9990 325° Northwest  Level FlightAware Approximate
12:25PM 45.8045 -91.2375 325° Northwest  Level FlightAware Approximate
12:26PM 45.8385 -91.2718 325° Northwest  Level FlightAware Approximate
12:27PM 45.8728 -91.3061 325° Northwest  Level FlightAware Approximate
12:28PM 45.9069 -91.3401 325° Northwest  Level FlightAware Approximate
12:29PM 45.9411 -91.3743 325° Northwest  Level FlightAware Approximate
12:30PM 45.9752 -91.4084 325° Northwest  Level FlightAware Approximate
12:31PM 46.0113 -91.4333 North  Level FlightAware Approximate
12:32PM 46.0167 -91.4333 North  Level FlightAware Approximate
12:33PM 46.0253 -91.4443 North  Level Estimated
12:34PM 46.0253 -91.4443 North  Level Estimated
12:35PM 46.0253 -91.4443 North  Level Estimated
12:36PM 46.0253 -91.4443 North  Level Estimated
12:37PM 46.0253 -91.4443 North  Level Estimated